sensor_id;sensor_type;location;lat;lon;timestamp;P1;durP1;ratioP1;P2;durP2;ratioP2
48635;SDS011;34429;52.332;5.614;2022-11-18T00:01:21;5.05;;;3.13;;
48635;SDS011;34429;52.332;5.614;2022-11-18T00:06:19;7.32;;;2.70;;
48635;SDS011;34429;52.332;5.614;2022-11-18T00:08:51;9.15;;;2.72;;
48635;SDS011;34429;52.332;5.614;2022-11-18T00:11:21;4.82;;;2.63;;
48635;SDS011;34429;52.332;5.614;2022-11-18T00:14:03;9.68;;;3.10;;
48635;SDS011;34429;52.332;5.614;2022-11-18T00:16:48;8.93;;;2.70;;
48635;SDS011;34429;52.332;5.614;2022-11-18T00:19:19;7.55;;;3.13;;
48635;SDS011;34429;52.332;5.614;2022-11-18T00:21:49;8.40;;;2.92;;
48635;SDS011;34429;52.332;5.614;2022-11-18T00:24:20;4.55;;;2.22;;
48635;SDS011;34429;52.332;5.614;2022-11-18T00:26:52;6.47;;;2.78;;
48635;SDS011;34429;52.332;5.614;2022-11-18T00:29:21;5.22;;;3.08;;
48635;SDS011;34429;52.332;5.614;2022-11-18T00:31:50;5.90;;;2.80;;
48635;SDS011;34429;52.332;5.614;2022-11-18T00:34:19;6.00;;;2.55;;
48635;SDS011;34429;52.332;5.614;2022-11-18T00:36:49;8.98;;;2.90;;
48635;SDS011;34429;52.332;5.614;2022-11-18T00:39:20;5.90;;;2.60;;
48635;SDS011;34429;52.332;5.614;2022-11-18T00:41:50;4.25;;;2.45;;
48635;SDS011;34429;52.332;5.614;2022-11-18T00:44:33;6.65;;;2.35;;
48635;SDS011;34429;52.332;5.614;2022-11-18T00:47:02;9.35;;;2.90;;
48635;SDS011;34429;52.332;5.614;2022-11-18T00:49:31;6.55;;;2.78;;
48635;SDS011;34429;52.332;5.614;2022-11-18T00:52:00;6.80;;;2.90;;
48635;SDS011;34429;52.332;5.614;2022-11-18T00:54:32;5.38;;;2.55;;
48635;SDS011;34429;52.332;5.614;2022-11-18T00:57:00;5.28;;;2.88;;
48635;SDS011;34429;52.332;5.614;2022-11-18T00:59:29;5.07;;;2.47;;
48635;SDS011;34429;52.332;5.614;2022-11-18T01:01:57;11.63;;;3.13;;
48635;SDS011;34429;52.332;5.614;2022-11-18T01:04:26;6.65;;;2.97;;
48635;SDS011;34429;52.332;5.614;2022-11-18T01:06:54;4.28;;;2.78;;
48635;SDS011;34429;52.332;5.614;2022-11-18T01:09:23;4.38;;;2.55;;
48635;SDS011;34429;52.332;5.614;2022-11-18T01:11:54;6.93;;;2.40;;
48635;SDS011;34429;52.332;5.614;2022-11-18T01:14:35;5.20;;;2.92;;
48635;SDS011;34429;52.332;5.614;2022-11-18T01:17:03;10.73;;;3.08;;
48635;SDS011;34429;52.332;5.614;2022-11-18T01:19:31;5.25;;;3.00;;
48635;SDS011;34429;52.332;5.614;2022-11-18T01:22:00;6.90;;;2.80;;
48635;SDS011;34429;52.332;5.614;2022-11-18T01:24:28;7.13;;;2.90;;
48635;SDS011;34429;52.332;5.614;2022-11-18T01:26:59;10.27;;;3.03;;
48635;SDS011;34429;52.332;5.614;2022-11-18T01:29:28;9.02;;;3.08;;
48635;SDS011;34429;52.332;5.614;2022-11-18T01:31:57;10.53;;;3.27;;
48635;SDS011;34429;52.332;5.614;2022-11-18T01:34:26;5.85;;;3.03;;
48635;SDS011;34429;52.332;5.614;2022-11-18T01:36:55;7.30;;;2.97;;
48635;SDS011;34429;52.332;5.614;2022-11-18T01:39:24;7.88;;;2.83;;
48635;SDS011;34429;52.332;5.614;2022-11-18T01:41:55;4.85;;;2.80;;
48635;SDS011;34429;52.332;5.614;2022-11-18T01:47:39;8.68;;;2.60;;
48635;SDS011;34429;52.332;5.614;2022-11-18T01:50:11;5.35;;;2.72;;
48635;SDS011;34429;52.332;5.614;2022-11-18T01:52:42;5.43;;;2.85;;
48635;SDS011;34429;52.332;5.614;2022-11-18T01:55:11;6.65;;;2.92;;
48635;SDS011;34429;52.332;5.614;2022-11-18T01:57:43;8.73;;;3.72;;
48635;SDS011;34429;52.332;5.614;2022-11-18T02:00:16;6.10;;;2.45;;
48635;SDS011;34429;52.332;5.614;2022-11-18T02:02:47;6.65;;;3.20;;
48635;SDS011;34429;52.332;5.614;2022-11-18T02:05:16;7.25;;;3.35;;
48635;SDS011;34429;52.332;5.614;2022-11-18T02:07:45;8.63;;;2.70;;
48635;SDS011;34429;52.332;5.614;2022-11-18T02:10:18;8.70;;;3.60;;
48635;SDS011;34429;52.332;5.614;2022-11-18T02:12:49;5.75;;;3.35;;
48635;SDS011;34429;52.332;5.614;2022-11-18T02:15:23;6.45;;;2.85;;
48635;SDS011;34429;52.332;5.614;2022-11-18T02:18:04;6.20;;;2.95;;
48635;SDS011;34429;52.332;5.614;2022-11-18T02:20:42;7.20;;;2.90;;
48635;SDS011;34429;52.332;5.614;2022-11-18T02:29:17;9.40;;;4.05;;
48635;SDS011;34429;52.332;5.614;2022-11-18T02:31:52;10.73;;;3.50;;
48635;SDS011;34429;52.332;5.614;2022-11-18T02:34:30;8.93;;;3.13;;
48635;SDS011;34429;52.332;5.614;2022-11-18T02:37:05;9.30;;;2.80;;
48635;SDS011;34429;52.332;5.614;2022-11-18T02:39:43;6.10;;;3.53;;
48635;SDS011;34429;52.332;5.614;2022-11-18T02:42:15;7.07;;;2.75;;
48635;SDS011;34429;52.332;5.614;2022-11-18T02:44:48;6.97;;;2.97;;
48635;SDS011;34429;52.332;5.614;2022-11-18T02:47:19;5.72;;;2.90;;
48635;SDS011;34429;52.332;5.614;2022-11-18T02:49:50;7.38;;;2.97;;
48635;SDS011;34429;52.332;5.614;2022-11-18T02:52:21;7.40;;;3.10;;
48635;SDS011;34429;52.332;5.614;2022-11-18T02:54:52;7.53;;;2.85;;
48635;SDS011;34429;52.332;5.614;2022-11-18T02:57:22;6.53;;;2.75;;
48635;SDS011;34429;52.332;5.614;2022-11-18T02:59:56;9.85;;;3.35;;
48635;SDS011;34429;52.332;5.614;2022-11-18T03:02:25;5.85;;;3.17;;
48635;SDS011;34429;52.332;5.614;2022-11-18T03:04:54;6.97;;;3.40;;
48635;SDS011;34429;52.332;5.614;2022-11-18T03:07:26;6.85;;;3.40;;
48635;SDS011;34429;52.332;5.614;2022-11-18T03:09:57;6.32;;;3.08;;
48635;SDS011;34429;52.332;5.614;2022-11-18T03:12:30;8.68;;;3.38;;
48635;SDS011;34429;52.332;5.614;2022-11-18T03:15:08;7.20;;;3.42;;
48635;SDS011;34429;52.332;5.614;2022-11-18T03:17:49;6.18;;;3.33;;
48635;SDS011;34429;52.332;5.614;2022-11-18T03:20:28;8.65;;;3.17;;
48635;SDS011;34429;52.332;5.614;2022-11-18T03:23:02;10.05;;;3.50;;
48635;SDS011;34429;52.332;5.614;2022-11-18T03:25:35;10.48;;;4.05;;
48635;SDS011;34429;52.332;5.614;2022-11-18T03:28:10;7.90;;;3.47;;
48635;SDS011;34429;52.332;5.614;2022-11-18T03:30:53;7.05;;;2.95;;
48635;SDS011;34429;52.332;5.614;2022-11-18T03:33:27;8.50;;;3.50;;
48635;SDS011;34429;52.332;5.614;2022-11-18T03:36:02;8.85;;;3.88;;
48635;SDS011;34429;52.332;5.614;2022-11-18T03:38:34;10.07;;;3.88;;
48635;SDS011;34429;52.332;5.614;2022-11-18T03:41:07;8.02;;;3.60;;
48635;SDS011;34429;52.332;5.614;2022-11-18T03:43:39;9.93;;;3.97;;
48635;SDS011;34429;52.332;5.614;2022-11-18T03:46:17;5.53;;;3.47;;
48635;SDS011;34429;52.332;5.614;2022-11-18T03:48:50;7.63;;;3.63;;
48635;SDS011;34429;52.332;5.614;2022-11-18T03:51:21;7.70;;;3.90;;
48635;SDS011;34429;52.332;5.614;2022-11-18T03:53:56;7.82;;;3.25;;
48635;SDS011;34429;52.332;5.614;2022-11-18T03:56:30;8.75;;;4.15;;
48635;SDS011;34429;52.332;5.614;2022-11-18T03:59:04;9.15;;;4.32;;
48635;SDS011;34429;52.332;5.614;2022-11-18T04:01:41;10.65;;;3.85;;
48635;SDS011;34429;52.332;5.614;2022-11-18T04:04:17;7.07;;;3.50;;
48635;SDS011;34429;52.332;5.614;2022-11-18T04:06:47;10.25;;;3.58;;
48635;SDS011;34429;52.332;5.614;2022-11-18T04:09:18;5.95;;;3.47;;
48635;SDS011;34429;52.332;5.614;2022-11-18T04:11:52;7.45;;;3.95;;
48635;SDS011;34429;52.332;5.614;2022-11-18T04:14:31;9.57;;;3.40;;
48635;SDS011;34429;52.332;5.614;2022-11-18T04:17:07;6.35;;;3.53;;
48635;SDS011;34429;52.332;5.614;2022-11-18T04:19:37;8.07;;;3.47;;
48635;SDS011;34429;52.332;5.614;2022-11-18T04:22:06;8.88;;;4.32;;
48635;SDS011;34429;52.332;5.614;2022-11-18T04:27:04;6.07;;;3.60;;
48635;SDS011;34429;52.332;5.614;2022-11-18T04:29:33;9.02;;;3.47;;
48635;SDS011;34429;52.332;5.614;2022-11-18T04:32:02;10.38;;;3.45;;
48635;SDS011;34429;52.332;5.614;2022-11-18T04:34:34;7.13;;;3.50;;
48635;SDS011;34429;52.332;5.614;2022-11-18T04:37:02;6.85;;;3.75;;
48635;SDS011;34429;52.332;5.614;2022-11-18T04:39:32;8.63;;;3.85;;
48635;SDS011;34429;52.332;5.614;2022-11-18T04:42:00;8.50;;;3.33;;
48635;SDS011;34429;52.332;5.614;2022-11-18T04:44:29;9.95;;;3.50;;
48635;SDS011;34429;52.332;5.614;2022-11-18T04:46:59;12.10;;;3.70;;
48635;SDS011;34429;52.332;5.614;2022-11-18T04:49:29;7.75;;;4.25;;
48635;SDS011;34429;52.332;5.614;2022-11-18T04:52:01;12.88;;;4.00;;
48635;SDS011;34429;52.332;5.614;2022-11-18T04:54:30;9.75;;;3.70;;
48635;SDS011;34429;52.332;5.614;2022-11-18T04:56:59;8.03;;;3.23;;
48635;SDS011;34429;52.332;5.614;2022-11-18T04:59:28;9.13;;;3.83;;
48635;SDS011;34429;52.332;5.614;2022-11-18T05:01:56;7.07;;;3.67;;
48635;SDS011;34429;52.332;5.614;2022-11-18T05:04:26;6.82;;;3.40;;
48635;SDS011;34429;52.332;5.614;2022-11-18T05:06:57;8.55;;;3.92;;
48635;SDS011;34429;52.332;5.614;2022-11-18T05:09:29;11.82;;;3.67;;
48635;SDS011;34429;52.332;5.614;2022-11-18T05:11:58;5.65;;;3.55;;
48635;SDS011;34429;52.332;5.614;2022-11-18T05:14:39;6.55;;;3.28;;
48635;SDS011;34429;52.332;5.614;2022-11-18T05:17:08;8.47;;;4.00;;
48635;SDS011;34429;52.332;5.614;2022-11-18T05:19:36;6.85;;;3.50;;
48635;SDS011;34429;52.332;5.614;2022-11-18T05:24:37;9.90;;;3.70;;
48635;SDS011;34429;52.332;5.614;2022-11-18T05:27:05;5.65;;;3.40;;
48635;SDS011;34429;52.332;5.614;2022-11-18T05:29:33;9.65;;;3.90;;
48635;SDS011;34429;52.332;5.614;2022-11-18T05:32:02;5.95;;;3.67;;
48635;SDS011;34429;52.332;5.614;2022-11-18T05:34:30;7.65;;;4.22;;
48635;SDS011;34429;52.332;5.614;2022-11-18T05:36:58;10.38;;;3.65;;
48635;SDS011;34429;52.332;5.614;2022-11-18T05:39:27;5.75;;;3.17;;
48635;SDS011;34429;52.332;5.614;2022-11-18T05:41:58;10.27;;;4.00;;
48635;SDS011;34429;52.332;5.614;2022-11-18T05:44:38;8.88;;;4.18;;
48635;SDS011;34429;52.332;5.614;2022-11-18T05:47:07;5.47;;;3.60;;
48635;SDS011;34429;52.332;5.614;2022-11-18T05:49:35;7.87;;;3.30;;
48635;SDS011;34429;52.332;5.614;2022-11-18T05:52:04;5.72;;;3.50;;
48635;SDS011;34429;52.332;5.614;2022-11-18T05:54:32;7.47;;;3.55;;
48635;SDS011;34429;52.332;5.614;2022-11-18T05:57:03;12.98;;;3.95;;
48635;SDS011;34429;52.332;5.614;2022-11-18T05:59:31;11.43;;;3.83;;
48635;SDS011;34429;52.332;5.614;2022-11-18T06:02:00;11.40;;;4.30;;
48635;SDS011;34429;52.332;5.614;2022-11-18T06:04:32;6.28;;;3.95;;
48635;SDS011;34429;52.332;5.614;2022-11-18T06:07:11;7.43;;;3.83;;
48635;SDS011;34429;52.332;5.614;2022-11-18T06:09:45;7.65;;;4.32;;
48635;SDS011;34429;52.332;5.614;2022-11-18T06:12:19;9.40;;;4.03;;
48635;SDS011;34429;52.332;5.614;2022-11-18T06:14:51;8.73;;;3.75;;
48635;SDS011;34429;52.332;5.614;2022-11-18T06:17:25;11.32;;;3.90;;
48635;SDS011;34429;52.332;5.614;2022-11-18T06:19:57;7.15;;;4.20;;
48635;SDS011;34429;52.332;5.614;2022-11-18T06:22:26;11.00;;;3.92;;
48635;SDS011;34429;52.332;5.614;2022-11-18T06:24:55;9.27;;;4.80;;
48635;SDS011;34429;52.332;5.614;2022-11-18T06:27:27;7.15;;;3.53;;
48635;SDS011;34429;52.332;5.614;2022-11-18T06:29:56;8.45;;;3.88;;
48635;SDS011;34429;52.332;5.614;2022-11-18T06:32:24;13.38;;;4.43;;
48635;SDS011;34429;52.332;5.614;2022-11-18T06:34:53;8.20;;;4.20;;
48635;SDS011;34429;52.332;5.614;2022-11-18T06:37:21;7.55;;;3.58;;
48635;SDS011;34429;52.332;5.614;2022-11-18T06:39:49;7.93;;;3.63;;
48635;SDS011;34429;52.332;5.614;2022-11-18T06:42:18;8.95;;;4.07;;
48635;SDS011;34429;52.332;5.614;2022-11-18T06:45:01;9.68;;;4.13;;
48635;SDS011;34429;52.332;5.614;2022-11-18T06:47:30;7.70;;;4.55;;
48635;SDS011;34429;52.332;5.614;2022-11-18T06:49:56;9.52;;;4.20;;
48635;SDS011;34429;52.332;5.614;2022-11-18T06:52:24;7.68;;;4.63;;
48635;SDS011;34429;52.332;5.614;2022-11-18T06:54:52;10.60;;;4.78;;
48635;SDS011;34429;52.332;5.614;2022-11-18T06:57:20;7.53;;;4.32;;
48635;SDS011;34429;52.332;5.614;2022-11-18T06:59:49;11.45;;;5.05;;
48635;SDS011;34429;52.332;5.614;2022-11-18T07:02:20;8.48;;;4.55;;
48635;SDS011;34429;52.332;5.614;2022-11-18T07:04:48;13.35;;;5.35;;
48635;SDS011;34429;52.332;5.614;2022-11-18T07:07:16;13.02;;;4.65;;
48635;SDS011;34429;52.332;5.614;2022-11-18T07:09:44;10.60;;;4.90;;
48635;SDS011;34429;52.332;5.614;2022-11-18T07:12:13;9.32;;;5.03;;
48635;SDS011;34429;52.332;5.614;2022-11-18T07:14:41;10.77;;;4.55;;
48635;SDS011;34429;52.332;5.614;2022-11-18T07:17:09;8.05;;;4.78;;
48635;SDS011;34429;52.332;5.614;2022-11-18T07:19:40;8.90;;;4.93;;
48635;SDS011;34429;52.332;5.614;2022-11-18T07:22:08;8.30;;;4.65;;
48635;SDS011;34429;52.332;5.614;2022-11-18T07:24:37;10.77;;;5.18;;
48635;SDS011;34429;52.332;5.614;2022-11-18T07:27:05;12.88;;;4.82;;
48635;SDS011;34429;52.332;5.614;2022-11-18T07:29:33;9.18;;;4.90;;
48635;SDS011;34429;52.332;5.614;2022-11-18T07:32:02;10.05;;;5.80;;
48635;SDS011;34429;52.332;5.614;2022-11-18T07:34:30;9.25;;;5.10;;
48635;SDS011;34429;52.332;5.614;2022-11-18T07:37:01;9.95;;;4.55;;
48635;SDS011;34429;52.332;5.614;2022-11-18T07:39:29;10.98;;;5.20;;
48635;SDS011;34429;52.332;5.614;2022-11-18T07:41:57;8.90;;;4.82;;
48635;SDS011;34429;52.332;5.614;2022-11-18T07:44:29;9.60;;;5.13;;
48635;SDS011;34429;52.332;5.614;2022-11-18T07:46:57;10.90;;;5.32;;
48635;SDS011;34429;52.332;5.614;2022-11-18T07:49:25;8.95;;;5.43;;
48635;SDS011;34429;52.332;5.614;2022-11-18T07:51:54;13.13;;;5.85;;
48635;SDS011;34429;52.332;5.614;2022-11-18T07:54:24;9.40;;;5.13;;
48635;SDS011;34429;52.332;5.614;2022-11-18T07:56:53;11.48;;;6.10;;
48635;SDS011;34429;52.332;5.614;2022-11-18T07:59:21;14.40;;;5.47;;
48635;SDS011;34429;52.332;5.614;2022-11-18T08:01:49;12.18;;;5.13;;
48635;SDS011;34429;52.332;5.614;2022-11-18T08:04:18;8.88;;;4.70;;
48635;SDS011;34429;52.332;5.614;2022-11-18T08:06:46;11.93;;;5.50;;
48635;SDS011;34429;52.332;5.614;2022-11-18T08:09:14;12.82;;;4.85;;
48635;SDS011;34429;52.332;5.614;2022-11-18T08:11:45;9.57;;;5.20;;
48635;SDS011;34429;52.332;5.614;2022-11-18T08:14:13;10.32;;;5.68;;
48635;SDS011;34429;52.332;5.614;2022-11-18T08:16:42;9.45;;;4.82;;
48635;SDS011;34429;52.332;5.614;2022-11-18T08:19:10;9.07;;;4.88;;
48635;SDS011;34429;52.332;5.614;2022-11-18T08:21:38;12.07;;;6.25;;
48635;SDS011;34429;52.332;5.614;2022-11-18T08:24:08;8.82;;;4.90;;
48635;SDS011;34429;52.332;5.614;2022-11-18T08:26:36;12.80;;;4.43;;
48635;SDS011;34429;52.332;5.614;2022-11-18T08:29:07;9.13;;;4.75;;
48635;SDS011;34429;52.332;5.614;2022-11-18T08:31:36;10.55;;;5.05;;
48635;SDS011;34429;52.332;5.614;2022-11-18T08:34:05;11.55;;;4.57;;
48635;SDS011;34429;52.332;5.614;2022-11-18T08:36:35;9.00;;;4.75;;
48635;SDS011;34429;52.332;5.614;2022-11-18T08:39:05;9.43;;;5.53;;
48635;SDS011;34429;52.332;5.614;2022-11-18T08:41:35;9.38;;;5.05;;
48635;SDS011;34429;52.332;5.614;2022-11-18T08:44:09;6.95;;;4.70;;
48635;SDS011;34429;52.332;5.614;2022-11-18T08:46:39;11.25;;;5.03;;
48635;SDS011;34429;52.332;5.614;2022-11-18T08:49:09;12.50;;;4.80;;
48635;SDS011;34429;52.332;5.614;2022-11-18T08:51:37;10.88;;;4.38;;
48635;SDS011;34429;52.332;5.614;2022-11-18T08:54:06;10.00;;;4.28;;
48635;SDS011;34429;52.332;5.614;2022-11-18T08:56:34;13.18;;;5.65;;
48635;SDS011;34429;52.332;5.614;2022-11-18T08:59:03;7.05;;;4.10;;
48635;SDS011;34429;52.332;5.614;2022-11-18T09:01:34;13.30;;;4.55;;
48635;SDS011;34429;52.332;5.614;2022-11-18T09:04:03;9.63;;;3.80;;
48635;SDS011;34429;52.332;5.614;2022-11-18T09:06:31;11.43;;;3.90;;
48635;SDS011;34429;52.332;5.614;2022-11-18T09:09:02;10.48;;;4.18;;
48635;SDS011;34429;52.332;5.614;2022-11-18T09:11:31;8.60;;;4.10;;
48635;SDS011;34429;52.332;5.614;2022-11-18T09:13:59;10.18;;;4.43;;
48635;SDS011;34429;52.332;5.614;2022-11-18T09:16:28;8.02;;;4.65;;
48635;SDS011;34429;52.332;5.614;2022-11-18T09:19:00;9.27;;;4.50;;
48635;SDS011;34429;52.332;5.614;2022-11-18T09:21:29;9.32;;;4.55;;
48635;SDS011;34429;52.332;5.614;2022-11-18T09:23:57;8.95;;;4.75;;
48635;SDS011;34429;52.332;5.614;2022-11-18T09:26:26;10.85;;;4.85;;
48635;SDS011;34429;52.332;5.614;2022-11-18T09:28:54;7.50;;;4.28;;
48635;SDS011;34429;52.332;5.614;2022-11-18T09:31:22;5.55;;;3.70;;
48635;SDS011;34429;52.332;5.614;2022-11-18T09:33:51;8.30;;;4.72;;
48635;SDS011;34429;52.332;5.614;2022-11-18T09:36:23;7.97;;;4.28;;
48635;SDS011;34429;52.332;5.614;2022-11-18T09:38:52;6.78;;;4.00;;
48635;SDS011;34429;52.332;5.614;2022-11-18T09:41:24;8.40;;;4.88;;
48635;SDS011;34429;52.332;5.614;2022-11-18T09:44:08;12.35;;;4.45;;
48635;SDS011;34429;52.332;5.614;2022-11-18T09:46:52;9.77;;;4.68;;
48635;SDS011;34429;52.332;5.614;2022-11-18T09:49:30;7.82;;;4.40;;
48635;SDS011;34429;52.332;5.614;2022-11-18T09:52:04;8.10;;;4.35;;
48635;SDS011;34429;52.332;5.614;2022-11-18T09:54:39;5.80;;;3.90;;
48635;SDS011;34429;52.332;5.614;2022-11-18T09:57:09;8.15;;;3.78;;
48635;SDS011;34429;52.332;5.614;2022-11-18T09:59:41;11.13;;;4.47;;
48635;SDS011;34429;52.332;5.614;2022-11-18T10:02:24;7.53;;;4.72;;
48635;SDS011;34429;52.332;5.614;2022-11-18T10:04:56;9.60;;;3.70;;
48635;SDS011;34429;52.332;5.614;2022-11-18T10:07:33;6.35;;;3.60;;
48635;SDS011;34429;52.332;5.614;2022-11-18T10:10:10;7.43;;;4.03;;
48635;SDS011;34429;52.332;5.614;2022-11-18T10:12:44;6.25;;;3.30;;
48635;SDS011;34429;52.332;5.614;2022-11-18T10:15:20;11.35;;;4.15;;
48635;SDS011;34429;52.332;5.614;2022-11-18T10:17:57;6.78;;;3.90;;
48635;SDS011;34429;52.332;5.614;2022-11-18T10:20:36;8.25;;;4.07;;
48635;SDS011;34429;52.332;5.614;2022-11-18T10:23:17;8.43;;;3.78;;
48635;SDS011;34429;52.332;5.614;2022-11-18T10:25:51;9.70;;;4.38;;
48635;SDS011;34429;52.332;5.614;2022-11-18T10:28:20;5.97;;;4.03;;
48635;SDS011;34429;52.332;5.614;2022-11-18T10:30:53;7.57;;;4.00;;
48635;SDS011;34429;52.332;5.614;2022-11-18T10:33:29;10.32;;;4.97;;
48635;SDS011;34429;52.332;5.614;2022-11-18T10:39:09;11.15;;;3.78;;
48635;SDS011;34429;52.332;5.614;2022-11-18T10:41:41;5.72;;;3.33;;
48635;SDS011;34429;52.332;5.614;2022-11-18T10:44:26;10.93;;;4.07;;
48635;SDS011;34429;52.332;5.614;2022-11-18T10:49:48;7.15;;;3.78;;
48635;SDS011;34429;52.332;5.614;2022-11-18T10:52:17;7.80;;;3.83;;
48635;SDS011;34429;52.332;5.614;2022-11-18T10:54:48;10.00;;;3.67;;
48635;SDS011;34429;52.332;5.614;2022-11-18T10:57:34;7.07;;;3.50;;
48635;SDS011;34429;52.332;5.614;2022-11-18T11:00:04;7.20;;;3.88;;
48635;SDS011;34429;52.332;5.614;2022-11-18T11:02:33;7.40;;;3.92;;
48635;SDS011;34429;52.332;5.614;2022-11-18T11:05:14;9.32;;;4.55;;
48635;SDS011;34429;52.332;5.614;2022-11-18T11:07:45;14.45;;;4.38;;
48635;SDS011;34429;52.332;5.614;2022-11-18T11:10:31;12.20;;;4.80;;
48635;SDS011;34429;52.332;5.614;2022-11-18T11:13:07;8.48;;;4.38;;
48635;SDS011;34429;52.332;5.614;2022-11-18T11:15:40;8.60;;;3.92;;
48635;SDS011;34429;52.332;5.614;2022-11-18T11:18:11;7.07;;;3.80;;
48635;SDS011;34429;52.332;5.614;2022-11-18T11:20:55;6.88;;;3.55;;
48635;SDS011;34429;52.332;5.614;2022-11-18T11:23:24;8.48;;;4.20;;
48635;SDS011;34429;52.332;5.614;2022-11-18T11:25:56;6.82;;;4.18;;
48635;SDS011;34429;52.332;5.614;2022-11-18T11:28:29;5.05;;;3.70;;
48635;SDS011;34429;52.332;5.614;2022-11-18T11:31:09;8.68;;;4.03;;
48635;SDS011;34429;52.332;5.614;2022-11-18T11:33:46;8.48;;;4.18;;
48635;SDS011;34429;52.332;5.614;2022-11-18T11:36:31;5.55;;;3.20;;
48635;SDS011;34429;52.332;5.614;2022-11-18T11:39:17;8.55;;;3.53;;
48635;SDS011;34429;52.332;5.614;2022-11-18T11:42:18;7.50;;;3.75;;
48635;SDS011;34429;52.332;5.614;2022-11-18T11:45:02;9.80;;;4.18;;
48635;SDS011;34429;52.332;5.614;2022-11-18T11:48:01;5.78;;;3.10;;
48635;SDS011;34429;52.332;5.614;2022-11-18T11:50:44;8.30;;;3.85;;
48635;SDS011;34429;52.332;5.614;2022-11-18T11:53:30;10.57;;;3.70;;
48635;SDS011;34429;52.332;5.614;2022-11-18T11:56:14;7.50;;;3.20;;
48635;SDS011;34429;52.332;5.614;2022-11-18T11:58:56;10.00;;;3.47;;
48635;SDS011;34429;52.332;5.614;2022-11-18T12:01:35;9.13;;;4.38;;
48635;SDS011;34429;52.332;5.614;2022-11-18T12:04:15;7.10;;;3.70;;
48635;SDS011;34429;52.332;5.614;2022-11-18T12:06:57;5.57;;;3.40;;
48635;SDS011;34429;52.332;5.614;2022-11-18T12:09:29;9.70;;;3.92;;
48635;SDS011;34429;52.332;5.614;2022-11-18T12:12:11;7.72;;;3.88;;
48635;SDS011;34429;52.332;5.614;2022-11-18T12:15:07;6.80;;;3.50;;
48635;SDS011;34429;52.332;5.614;2022-11-18T12:17:44;13.02;;;3.90;;
48635;SDS011;34429;52.332;5.614;2022-11-18T12:20:35;9.02;;;3.40;;
48635;SDS011;34429;52.332;5.614;2022-11-18T12:23:18;10.02;;;3.70;;
48635;SDS011;34429;52.332;5.614;2022-11-18T12:25:51;7.22;;;3.60;;
48635;SDS011;34429;52.332;5.614;2022-11-18T12:28:26;13.05;;;3.80;;
48635;SDS011;34429;52.332;5.614;2022-11-18T12:33:58;7.30;;;3.92;;
48635;SDS011;34429;52.332;5.614;2022-11-18T12:36:29;11.73;;;4.55;;
48635;SDS011;34429;52.332;5.614;2022-11-18T12:39:45;8.40;;;3.85;;
48635;SDS011;34429;52.332;5.614;2022-11-18T12:42:31;6.03;;;3.92;;
48635;SDS011;34429;52.332;5.614;2022-11-18T12:48:36;10.00;;;5.03;;
48635;SDS011;34429;52.332;5.614;2022-11-18T12:57:10;9.73;;;4.47;;
48635;SDS011;34429;52.332;5.614;2022-11-18T12:59:45;6.43;;;4.07;;
48635;SDS011;34429;52.332;5.614;2022-11-18T13:02:18;11.25;;;5.00;;
48635;SDS011;34429;52.332;5.614;2022-11-18T13:05:02;5.50;;;4.10;;
48635;SDS011;34429;52.332;5.614;2022-11-18T13:07:32;7.63;;;4.30;;
48635;SDS011;34429;52.332;5.614;2022-11-18T13:10:22;8.00;;;4.43;;
48635;SDS011;34429;52.332;5.614;2022-11-18T13:12:53;11.02;;;3.92;;
48635;SDS011;34429;52.332;5.614;2022-11-18T13:15:22;8.15;;;4.45;;
48635;SDS011;34429;52.332;5.614;2022-11-18T13:18:06;7.80;;;4.88;;
48635;SDS011;34429;52.332;5.614;2022-11-18T13:20:40;11.02;;;5.15;;
48635;SDS011;34429;52.332;5.614;2022-11-18T13:23:23;9.55;;;4.65;;
48635;SDS011;34429;52.332;5.614;2022-11-18T13:26:13;7.78;;;5.00;;
48635;SDS011;34429;52.332;5.614;2022-11-18T13:29:04;8.30;;;4.50;;
48635;SDS011;34429;52.332;5.614;2022-11-18T13:31:46;10.13;;;4.95;;
48635;SDS011;34429;52.332;5.614;2022-11-18T13:34:23;6.55;;;4.68;;
48635;SDS011;34429;52.332;5.614;2022-11-18T13:36:55;10.02;;;5.10;;
48635;SDS011;34429;52.332;5.614;2022-11-18T13:39:26;8.82;;;4.50;;
48635;SDS011;34429;52.332;5.614;2022-11-18T13:42:02;15.45;;;4.60;;
48635;SDS011;34429;52.332;5.614;2022-11-18T13:44:33;7.72;;;4.72;;
48635;SDS011;34429;52.332;5.614;2022-11-18T13:47:03;8.23;;;4.22;;
48635;SDS011;34429;52.332;5.614;2022-11-18T13:49:40;9.73;;;4.22;;
48635;SDS011;34429;52.332;5.614;2022-11-18T13:52:13;7.82;;;4.07;;
48635;SDS011;34429;52.332;5.614;2022-11-18T13:54:50;8.30;;;5.25;;
48635;SDS011;34429;52.332;5.614;2022-11-18T13:57:23;10.32;;;4.88;;
48635;SDS011;34429;52.332;5.614;2022-11-18T13:59:54;9.20;;;4.85;;
48635;SDS011;34429;52.332;5.614;2022-11-18T14:02:27;8.63;;;4.88;;
48635;SDS011;34429;52.332;5.614;2022-11-18T14:04:56;10.00;;;6.68;;
48635;SDS011;34429;52.332;5.614;2022-11-18T14:07:28;7.38;;;4.80;;
48635;SDS011;34429;52.332;5.614;2022-11-18T14:09:59;8.50;;;4.93;;
48635;SDS011;34429;52.332;5.614;2022-11-18T14:12:32;11.20;;;4.80;;
48635;SDS011;34429;52.332;5.614;2022-11-18T14:15:11;8.32;;;5.40;;
48635;SDS011;34429;52.332;5.614;2022-11-18T14:17:52;11.13;;;5.72;;
48635;SDS011;34429;52.332;5.614;2022-11-18T14:20:22;8.05;;;4.57;;
48635;SDS011;34429;52.332;5.614;2022-11-18T14:22:52;14.95;;;5.38;;
48635;SDS011;34429;52.332;5.614;2022-11-18T14:25:24;10.40;;;5.10;;
48635;SDS011;34429;52.332;5.614;2022-11-18T14:28:08;9.60;;;4.95;;
48635;SDS011;34429;52.332;5.614;2022-11-18T14:30:38;8.75;;;5.05;;
48635;SDS011;34429;52.332;5.614;2022-11-18T14:33:09;7.85;;;4.90;;
48635;SDS011;34429;52.332;5.614;2022-11-18T14:35:47;7.50;;;4.75;;
48635;SDS011;34429;52.332;5.614;2022-11-18T14:38:18;9.57;;;5.03;;
48635;SDS011;34429;52.332;5.614;2022-11-18T14:40:53;7.70;;;5.13;;
48635;SDS011;34429;52.332;5.614;2022-11-18T14:43:25;7.68;;;4.85;;
48635;SDS011;34429;52.332;5.614;2022-11-18T14:45:54;8.18;;;5.45;;
48635;SDS011;34429;52.332;5.614;2022-11-18T14:48:26;8.32;;;4.70;;
48635;SDS011;34429;52.332;5.614;2022-11-18T14:50:56;9.25;;;4.88;;
48635;SDS011;34429;52.332;5.614;2022-11-18T14:53:24;8.82;;;5.28;;
48635;SDS011;34429;52.332;5.614;2022-11-18T14:55:53;13.87;;;4.93;;
48635;SDS011;34429;52.332;5.614;2022-11-18T14:58:27;9.48;;;5.03;;
48635;SDS011;34429;52.332;5.614;2022-11-18T15:00:56;7.78;;;4.35;;
48635;SDS011;34429;52.332;5.614;2022-11-18T15:03:25;6.77;;;4.87;;
48635;SDS011;34429;52.332;5.614;2022-11-18T15:05:53;7.95;;;5.10;;
48635;SDS011;34429;52.332;5.614;2022-11-18T15:08:22;7.70;;;4.53;;
48635;SDS011;34429;52.332;5.614;2022-11-18T15:10:50;5.85;;;4.32;;
48635;SDS011;34429;52.332;5.614;2022-11-18T15:13:18;8.45;;;5.28;;
48635;SDS011;34429;52.332;5.614;2022-11-18T15:15:49;8.23;;;5.60;;
48635;SDS011;34429;52.332;5.614;2022-11-18T15:18:17;6.90;;;4.57;;
48635;SDS011;34429;52.332;5.614;2022-11-18T15:20:49;11.40;;;6.35;;
48635;SDS011;34429;52.332;5.614;2022-11-18T15:23:17;7.67;;;5.33;;
48635;SDS011;34429;52.332;5.614;2022-11-18T15:25:45;10.48;;;5.15;;
48635;SDS011;34429;52.332;5.614;2022-11-18T15:28:14;13.00;;;5.07;;
48635;SDS011;34429;52.332;5.614;2022-11-18T15:30:42;6.78;;;4.68;;
48635;SDS011;34429;52.332;5.614;2022-11-18T15:33:13;6.77;;;5.20;;
48635;SDS011;34429;52.332;5.614;2022-11-18T15:35:41;8.38;;;4.82;;
48635;SDS011;34429;52.332;5.614;2022-11-18T15:38:10;7.97;;;4.70;;
48635;SDS011;34429;52.332;5.614;2022-11-18T15:40:38;8.70;;;5.00;;
48635;SDS011;34429;52.332;5.614;2022-11-18T15:43:07;8.18;;;5.10;;
48635;SDS011;34429;52.332;5.614;2022-11-18T15:45:35;6.53;;;4.68;;
48635;SDS011;34429;52.332;5.614;2022-11-18T15:48:04;8.30;;;5.32;;
48635;SDS011;34429;52.332;5.614;2022-11-18T15:50:35;11.32;;;5.55;;
48635;SDS011;34429;52.332;5.614;2022-11-18T15:53:03;8.65;;;4.95;;